Time,TemperatureF,DewpointF,PressureIn,WindDirection,WindDirectionDegrees,WindSpeedMPH,WindSpeedGustMPH,Humidity,HourlyPrecipIn,Conditions,Clouds,dailyrainin,SoftwareType,DateUTC
2013-05-15 00:00:00,72.0,34.2,30.07,WSW,243,9.0,14.0,25,0.00,CLR,,0.00,WeatherDisplay:10.37,2013-05-15 07:00:00,
2013-05-15 00:10:00,72.0,33.2,30.07,SW,235,8.0,15.0,24,0.00,CLR,,0.00,WeatherDisplay:10.37,2013-05-15 07:10:00,
2013-05-15 00:20:00,73.0,34.1,30.07,WSW,245,12.0,20.0,24,0.00,CLR,,0.00,WeatherDisplay:10.37,2013-05-15 07:20:00,
2013-05-15 00:30:00,74.0,34.9,30.06,WSW,253,15.0,21.0,24,0.00,CLR,,0.00,WeatherDisplay:10.37,2013-05-15 07:30:00,
2013-05-15 00:40:00,73.0,34.1,30.06,WSW,248,12.0,21.0,24,0.00,CLR,,0.00,WeatherDisplay:10.37,2013-05-15 07:40:00,
2013-05-15 00:50:00,73.0,34.1,30.07,WSW,247,12.0,18.0,24,0.00,CLR,,0.00,WeatherDisplay:10.37,2013-05-15 07:50:00,
2013-05-15 01:00:00,73.0,34.1,30.07,West,271,6.0,17.0,24,0.00,CLR,,0.00,WeatherDisplay:10.37,2013-05-15 08:00:00,
2013-05-15 01:10:00,72.0,34.2,30.07,ENE,59,5.0,12.0,25,0.00,CLR,,0.00,WeatherDisplay:10.37,2013-05-15 08:10:00,
2013-05-15 01:20:00,70.0,34.5,30.08,East,101,2.0,8.0,27,0.00,CLR,,0.00,WeatherDisplay:10.37,2013-05-15 08:20:00,
2013-05-15 01:30:00,70.3,34.7,30.09,NNW,335,8.0,12.0,27,0.00,CLR,,0.00,WeatherDisplay:10.37,2013-05-15 08:30:00,
2013-05-15 01:40:00,73.0,35.1,30.08,West,275,2.0,20.0,25,0.00,CLR,,0.00,WeatherDisplay:10.37,2013-05-15 08:40:00,
2013-05-15 01:50:00,71.0,33.4,30.08,North,7,2.0,10.0,25,0.00,CLR,,0.00,WeatherDisplay:10.37,2013-05-15 08:50:00,
2013-05-15 02:00:00,72.0,34.2,30.09,WNW,303,6.0,13.0,25,0.00,CLR,,0.00,WeatherDisplay:10.37,2013-05-15 09:00:00,
2013-05-15 02:10:00,67.0,32.8,30.09,North,351,5.0,10.0,28,0.00,CLR,,0.00,WeatherDisplay:10.37,2013-05-15 09:10:00,
2013-05-15 02:20:00,66.5,34.1,30.11,NW,304,7.0,14.0,30,0.00,CLR,,0.00,WeatherDisplay:10.37,2013-05-15 09:20:00,
2013-05-15 02:30:00,71.0,34.4,30.09,West,278,2.0,12.0,26,0.00,CLR,,0.00,WeatherDisplay:10.37,2013-05-15 09:30:00,
2013-05-15 02:40:00,71.0,33.4,30.08,West,273,9.0,13.0,25,0.00,CLR,,0.00,WeatherDisplay:10.37,2013-05-15 09:40:00,
2013-05-15 02:50:00,71.0,33.4,30.08,WSW,247,7.0,10.0,25,0.00,CLR,,0.00,WeatherDisplay:10.37,2013-05-15 09:50:00,
2013-05-15 03:00:00,69.0,33.6,30.08,SSW,202,6.0,9.0,27,0.00,CLR,,0.00,WeatherDisplay:10.37,2013-05-15 10:00:00,
2013-05-15 03:10:00,69.0,33.6,30.10,SW,225,8.0,10.0,27,0.00,CLR,,0.00,WeatherDisplay:10.37,2013-05-15 10:10:00,
2013-05-15 03:20:00,70.0,34.5,30.10,SW,217,7.0,12.0,27,0.00,CLR,,0.00,WeatherDisplay:10.37,2013-05-15 10:20:00,
2013-05-15 03:30:00,69.0,33.6,30.09,South,189,7.0,10.0,27,0.00,CLR,,0.00,WeatherDisplay:10.37,2013-05-15 10:30:00,
2013-05-15 03:40:00,66.0,32.8,30.10,East,95,3.0,10.0,29,0.00,CLR,,0.00,WeatherDisplay:10.37,2013-05-15 10:40:00,
2013-05-15 03:50:00,66.0,33.7,30.12,SSE,164,5.0,9.0,30,0.00,CLR,,0.00,WeatherDisplay:10.37,2013-05-15 10:50:00,
2013-05-15 04:00:00,66.0,33.7,30.12,SSW,192,8.0,12.0,30,0.00,CLR,,0.00,WeatherDisplay:10.37,2013-05-15 11:00:00,
2013-05-15 04:20:00,64.0,33.5,30.12,SW,220,0.0,9.0,32,0.00,CLR,,0.00,WeatherDisplay:10.37,2013-05-15 11:20:00,
2013-05-15 04:30:00,62.0,32.5,30.14,NNW,348,6.0,7.0,33,0.00,CLR,,0.00,WeatherDisplay:10.37,2013-05-15 11:30:00,
2013-05-15 04:40:00,60.0,32.2,30.15,NNW,337,0.0,7.0,35,0.00,CLR,,0.00,WeatherDisplay:10.37,2013-05-15 11:40:00,
2013-05-15 04:50:00,58.3,32.1,30.17,NNW,337,0.0,2.0,37,0.00,CLR,,0.00,WeatherDisplay:10.37,2013-05-15 11:50:00,
2013-05-15 05:00:00,58.0,32.5,30.18,NNW,337,3.0,6.0,38,0.00,CLR,,0.00,WeatherDisplay:10.37,2013-05-15 12:00:00,
2013-05-15 05:10:00,57.3,32.5,30.18,NNW,347,0.0,3.0,39,0.00,CLR,,0.00,WeatherDisplay:10.37,2013-05-15 12:10:00,
2013-05-15 05:20:00,58.0,32.5,30.18,West,263,1.0,6.0,38,0.00,CLR,,0.00,WeatherDisplay:10.37,2013-05-15 12:20:00,
2013-05-15 05:30:00,58.0,32.5,30.18,SSW,205,5.0,6.0,38,0.00,CLR,,0.00,WeatherDisplay:10.37,2013-05-15 12:30:00,
2013-05-15 05:40:00,59.3,32.3,30.18,SSW,203,1.0,6.0,36,0.00,CLR,,0.00,WeatherDisplay:10.37,2013-05-15 12:40:00,
2013-05-15 05:50:00,60.0,32.9,30.17,SSW,207,0.0,3.0,36,0.00,CLR,,0.00,WeatherDisplay:10.37,2013-05-15 12:50:00,
2013-05-15 06:00:00,59.3,32.3,30.17,SW,215,2.0,4.0,36,0.00,CLR,,0.00,WeatherDisplay:10.37,2013-05-15 13:00:00,
2013-05-15 06:10:00,60.2,33.9,30.17,SW,225,0.0,2.0,37,0.00,CLR,,0.00,WeatherDisplay:10.37,2013-05-15 13:10:00,
2013-05-15 06:20:00,62.0,34.7,30.17,SW,225,0.0,5.0,36,0.00,CLR,,0.00,WeatherDisplay:10.37,2013-05-15 13:20:00,
2013-05-15 06:30:00,64.0,35.0,30.17,SSW,200,5.0,6.0,34,0.00,CLR,,0.00,WeatherDisplay:10.37,2013-05-15 13:30:00,
2013-05-15 06:50:00,67.0,34.5,30.15,South,179,6.0,7.0,30,0.00,CLR,,0.00,WeatherDisplay:10.37,2013-05-15 13:50:00,
2013-05-15 07:00:00,68.3,34.8,30.15,South,172,3.0,7.0,29,0.00,CLR,,0.00,WeatherDisplay:10.37,2013-05-15 14:00:00,
2013-05-15 07:10:00,69.2,33.8,30.14,South,175,6.0,10.0,27,0.00,CLR,,0.00,WeatherDisplay:10.37,2013-05-15 14:10:00,
2013-05-15 07:20:00,70.3,34.7,30.13,South,175,3.0,8.0,27,0.00,CLR,,0.00,WeatherDisplay:10.37,2013-05-15 14:20:00,
2013-05-15 07:40:00,74.3,34.1,30.12,WSW,238,7.0,12.0,23,0.00,CLR,,0.00,WeatherDisplay:10.37,2013-05-15 14:40:00,
2013-05-15 07:50:00,75.2,32.6,30.11,WSW,256,9.0,15.0,21,0.00,CLR,,0.00,WeatherDisplay:10.37,2013-05-15 14:50:00,
2013-05-15 08:00:00,76.0,33.2,30.12,WSW,256,8.0,17.0,21,0.00,CLR,,0.00,WeatherDisplay:10.37,2013-05-15 15:00:00,
2013-05-15 08:10:00,76.0,34.4,30.12,SW,216,7.0,13.0,22,0.00,CLR,,0.00,WeatherDisplay:10.37,2013-05-15 15:10:00,
2013-05-15 08:20:00,77.0,35.2,30.12,SSW,207,7.0,12.0,22,0.00,CLR,,0.00,WeatherDisplay:10.37,2013-05-15 15:20:00,
2013-05-15 08:30:00,78.0,33.7,30.11,SW,231,6.0,12.0,20,0.00,CLR,,0.00,WeatherDisplay:10.37,2013-05-15 15:30:00,
2013-05-15 08:50:00,79.0,34.5,30.11,SSW,195,6.0,10.0,20,0.00,CLR,,0.00,WeatherDisplay:10.37,2013-05-15 15:50:00,
2013-05-15 09:00:00,80.0,35.3,30.11,SW,221,2.0,9.0,20,0.00,CLR,,0.00,WeatherDisplay:10.37,2013-05-15 16:00:00,
2013-05-15 09:10:00,80.0,34.0,30.10,SW,223,6.0,10.0,19,0.00,CLR,,0.00,WeatherDisplay:10.37,2013-05-15 16:10:00,
2013-05-15 09:20:00,81.0,32.1,30.10,WSW,245,8.0,14.0,17,0.00,CLR,,0.00,WeatherDisplay:10.37,2013-05-15 16:20:00,
2013-05-15 09:30:00,81.0,32.1,30.09,WSW,257,8.0,12.0,17,0.00,CLR,,0.00,WeatherDisplay:10.37,2013-05-15 16:30:00,
2013-05-15 10:00:00,82.0,31.4,30.08,NW,307,12.0,16.0,16,0.00,CLR,,0.00,WeatherDisplay:10.37,2013-05-15 17:00:00,
2013-05-15 10:20:00,82.0,31.4,30.08,WNW,294,7.0,12.0,16,0.00,CLR,,0.00,WeatherDisplay:10.37,2013-05-15 17:20:00,
2013-05-15 10:30:00,82.0,31.4,30.07,WNW,289,12.0,16.0,16,0.00,CLR,,0.00,WeatherDisplay:10.37,2013-05-15 17:30:00,
2013-05-15 10:40:00,83.2,32.4,30.07,WSW,252,9.0,16.0,16,0.00,CLR,,0.00,WeatherDisplay:10.37,2013-05-15 17:40:00,
2013-05-15 10:50:00,84.0,33.0,30.06,WSW,257,5.0,15.0,16,0.00,CLR,,0.00,WeatherDisplay:10.37,2013-05-15 17:50:00,
2013-05-15 11:00:00,85.0,33.8,30.06,WSW,257,3.0,10.0,16,0.00,CLR,,0.00,WeatherDisplay:10.37,2013-05-15 18:00:00,
2013-05-15 11:20:00,85.0,33.8,30.05,WNW,286,8.0,15.0,16,0.00,CLR,,0.00,WeatherDisplay:10.37,2013-05-15 18:20:00,
2013-05-15 11:30:00,85.0,30.4,30.04,West,262,14.0,20.0,14,0.00,CLR,,0.00,WeatherDisplay:10.37,2013-05-15 18:30:00,
2013-05-15 11:40:00,86.0,31.2,30.04,WSW,248,9.0,17.0,14,0.00,CLR,,0.00,WeatherDisplay:10.37,2013-05-15 18:40:00,
2013-05-15 11:50:00,86.3,31.4,30.03,West,272,8.0,20.0,14,0.00,CLR,,0.00,WeatherDisplay:10.37,2013-05-15 18:50:00,
2013-05-15 12:10:00,87.0,30.2,30.02,West,269,9.0,16.0,13,0.00,CLR,,0.00,WeatherDisplay:10.37,2013-05-15 19:10:00,
2013-05-15 12:20:00,86.0,29.4,30.02,WSW,252,10.0,16.0,13,0.00,CLR,,0.00,WeatherDisplay:10.37,2013-05-15 19:20:00,
2013-05-15 13:10:00,87.3,30.4,29.99,SW,231,8.0,20.0,13,0.00,CLR,,0.00,WeatherDisplay:10.37,2013-05-15 20:10:00,
2013-05-15 13:20:00,87.2,30.4,29.99,WNW,283,9.0,20.0,13,0.00,CLR,,0.00,WeatherDisplay:10.37,2013-05-15 20:20:00,
2013-05-15 13:30:00,88.0,29.0,29.99,WSW,250,13.0,21.0,12,0.00,CLR,,0.00,WeatherDisplay:10.37,2013-05-15 20:30:00,
2013-05-15 13:50:00,86.0,29.4,29.99,West,262,8.0,17.0,13,0.00,CLR,,0.00,WeatherDisplay:10.37,2013-05-15 20:50:00,
2013-05-15 14:00:00,88.0,29.0,29.99,SW,231,12.0,22.0,12,0.00,CLR,,0.00,WeatherDisplay:10.37,2013-05-15 21:00:00,
2013-05-15 14:10:00,88.2,29.2,29.98,WSW,255,15.0,22.0,12,0.00,CLR,,0.00,WeatherDisplay:10.37,2013-05-15 21:10:00,
2013-05-15 14:20:00,88.0,29.0,29.97,WSW,238,9.0,23.0,12,0.00,CLR,,0.00,WeatherDisplay:10.37,2013-05-15 21:20:00,
2013-05-15 14:30:00,89.0,27.7,29.97,WSW,242,15.0,22.0,11,0.00,CLR,,0.00,WeatherDisplay:10.37,2013-05-15 21:30:00,
2013-05-15 15:00:00,89.0,27.7,29.95,West,266,15.0,31.0,11,0.00,CLR,,0.00,WeatherDisplay:10.37,2013-05-15 22:00:00,
2013-05-15 15:10:00,88.0,31.0,29.95,West,269,7.0,20.0,13,0.00,CLR,,0.00,WeatherDisplay:10.37,2013-05-15 22:10:00,
2013-05-15 15:20:00,88.0,31.0,29.96,SW,231,15.0,20.0,13,0.00,CLR,,0.00,WeatherDisplay:10.37,2013-05-15 22:20:00,
2013-05-15 15:30:00,88.0,29.0,29.95,WSW,246,13.0,20.0,12,0.00,CLR,,0.00,WeatherDisplay:10.37,2013-05-15 22:30:00,
2013-05-15 15:40:00,88.0,29.0,29.95,West,263,7.0,18.0,12,0.00,CLR,,0.00,WeatherDisplay:10.37,2013-05-15 22:40:00,
2013-05-15 15:50:00,87.3,30.4,29.95,WNW,284,8.0,16.0,13,0.00,CLR,,0.00,WeatherDisplay:10.37,2013-05-15 22:50:00,
2013-05-15 16:00:00,88.0,29.0,29.95,West,274,12.0,20.0,12,0.00,CLR,,0.00,WeatherDisplay:10.37,2013-05-15 23:00:00,
2013-05-15 16:20:00,89.0,29.8,29.95,WNW,282,10.0,18.0,12,0.00,CLR,,0.00,WeatherDisplay:10.37,2013-05-15 23:20:00,
2013-05-15 16:30:00,88.0,29.0,29.94,West,271,10.0,22.0,12,0.00,CLR,,0.00,WeatherDisplay:10.37,2013-05-15 23:30:00,
2013-05-15 16:40:00,87.0,30.2,29.94,WNW,282,10.0,20.0,13,0.00,CLR,,0.00,WeatherDisplay:10.37,2013-05-15 23:40:00,
2013-05-15 16:50:00,87.0,30.2,29.95,WSW,255,13.0,23.0,13,0.00,CLR,,0.00,WeatherDisplay:10.37,2013-05-15 23:50:00,
2013-05-15 17:00:00,87.0,30.2,29.94,WSW,252,13.0,24.0,13,0.00,CLR,,0.00,WeatherDisplay:10.37,2013-05-16 00:00:00,
2013-05-15 17:10:00,86.0,31.2,29.94,West,268,12.0,24.0,14,0.00,CLR,,0.00,WeatherDisplay:10.37,2013-05-16 00:10:00,
2013-05-15 17:40:00,85.0,30.4,29.94,West,268,13.0,22.0,14,0.00,CLR,,0.00,WeatherDisplay:10.37,2013-05-16 00:40:00,
2013-05-15 17:50:00,85.0,32.2,29.95,WSW,245,12.0,17.0,15,0.00,CLR,,0.00,WeatherDisplay:10.37,2013-05-16 00:50:00,
2013-05-15 18:00:00,84.2,31.6,29.95,SW,232,12.0,16.0,15,0.00,CLR,,0.00,WeatherDisplay:10.37,2013-05-16 01:00:00,
2013-05-15 18:10:00,84.0,31.4,29.95,WSW,241,9.0,20.0,15,0.00,CLR,,0.00,WeatherDisplay:10.37,2013-05-16 01:10:00,
2013-05-15 18:20:00,84.0,31.4,29.95,West,260,8.0,15.0,15,0.00,CLR,,0.00,WeatherDisplay:10.37,2013-05-16 01:20:00,
2013-05-15 18:30:00,83.0,32.2,29.95,WSW,257,12.0,20.0,16,0.00,CLR,,0.00,WeatherDisplay:10.37,2013-05-16 01:30:00,
2013-05-15 18:40:00,83.0,32.2,29.96,SW,225,12.0,20.0,16,0.00,CLR,,0.00,WeatherDisplay:10.37,2013-05-16 01:40:00,
2013-05-15 18:50:00,82.0,31.4,29.96,WSW,258,12.0,18.0,16,0.00,CLR,,0.00,WeatherDisplay:10.37,2013-05-16 01:50:00,
2013-05-15 19:00:00,81.0,30.6,29.97,WSW,249,9.0,16.0,16,0.00,CLR,,0.00,WeatherDisplay:10.37,2013-05-16 02:00:00,
2013-05-15 19:10:00,80.0,29.8,29.97,WSW,243,9.0,16.0,16,0.00,CLR,,0.00,WeatherDisplay:10.37,2013-05-16 02:10:00,
2013-05-15 19:20:00,80.0,31.2,29.98,WSW,242,8.0,13.0,17,0.00,CLR,,0.00,WeatherDisplay:10.37,2013-05-16 02:20:00,
2013-05-15 19:30:00,79.0,30.4,29.98,WSW,246,8.0,12.0,17,0.00,CLR,,0.00,WeatherDisplay:10.37,2013-05-16 02:30:00,
2013-05-15 19:40:00,78.0,29.6,29.99,WSW,249,7.0,10.0,17,0.00,CLR,,0.00,WeatherDisplay:10.37,2013-05-16 02:40:00,
2013-05-15 19:50:00,77.0,30.2,30.00,WSW,246,6.0,9.0,18,0.00,CLR,,0.00,WeatherDisplay:10.37,2013-05-16 02:50:00,
2013-05-15 20:00:00,77.0,30.2,30.01,WSW,248,8.0,10.0,18,0.00,CLR,,0.00,WeatherDisplay:10.37,2013-05-16 03:00:00,
2013-05-15 20:10:00,76.3,29.6,30.01,WSW,252,6.0,9.0,18,0.00,CLR,,0.00,WeatherDisplay:10.37,2013-05-16 03:10:00,
2013-05-15 20:20:00,76.0,30.7,30.01,WSW,249,6.0,8.0,19,0.00,CLR,,0.00,WeatherDisplay:10.37,2013-05-16 03:20:00,
2013-05-15 20:40:00,75.0,31.2,30.03,West,262,6.0,8.0,20,0.00,CLR,,0.00,WeatherDisplay:10.37,2013-05-16 03:40:00,
2013-05-15 20:50:00,75.0,29.9,30.03,West,269,6.0,10.0,19,0.00,CLR,,0.00,WeatherDisplay:10.37,2013-05-16 03:50:00,
2013-05-15 21:10:00,75.0,31.2,30.04,WSW,250,7.0,9.0,20,0.00,CLR,,0.00,WeatherDisplay:10.37,2013-05-16 04:10:00,
2013-05-15 21:20:00,75.0,31.2,30.04,WSW,248,7.0,9.0,20,0.00,CLR,,0.00,WeatherDisplay:10.37,2013-05-16 04:20:00,
2013-05-15 21:30:00,75.0,31.2,30.04,WSW,253,7.0,12.0,20,0.00,CLR,,0.00,WeatherDisplay:10.37,2013-05-16 04:30:00,
2013-05-15 21:40:00,75.0,31.2,30.04,WSW,254,7.0,12.0,20,0.00,CLR,,0.00,WeatherDisplay:10.37,2013-05-16 04:40:00,
2013-05-15 21:50:00,74.0,30.4,30.04,West,262,6.0,9.0,20,0.00,CLR,,0.00,WeatherDisplay:10.37,2013-05-16 04:50:00,
2013-05-15 22:00:00,74.0,31.6,30.05,West,267,7.0,9.0,21,0.00,CLR,,0.00,WeatherDisplay:10.37,2013-05-16 05:00:00,
2013-05-15 22:10:00,74.3,31.8,30.05,West,261,8.0,12.0,21,0.00,CLR,,0.00,WeatherDisplay:10.37,2013-05-16 05:10:00,
2013-05-15 22:20:00,75.0,32.4,30.04,West,268,8.0,12.0,21,0.00,CLR,,0.00,WeatherDisplay:10.37,2013-05-16 05:20:00,
2013-05-15 22:30:00,75.0,32.4,30.04,WSW,257,7.0,13.0,21,0.00,CLR,,0.00,WeatherDisplay:10.37,2013-05-16 05:30:00,
2013-05-15 22:40:00,74.0,32.7,30.04,West,266,6.0,13.0,22,0.00,CLR,,0.00,WeatherDisplay:10.37,2013-05-16 05:40:00,
2013-05-15 22:50:00,74.0,32.7,30.05,West,277,7.0,10.0,22,0.00,CLR,,0.00,WeatherDisplay:10.37,2013-05-16 05:50:00,
2013-05-15 23:00:00,73.0,31.9,30.05,West,268,6.0,9.0,22,0.00,CLR,,0.00,WeatherDisplay:10.37,2013-05-16 06:00:00,
2013-05-15 23:10:00,72.2,32.3,30.06,West,269,8.0,10.0,23,0.00,CLR,,0.00,WeatherDisplay:10.37,2013-05-16 06:10:00,
2013-05-15 23:20:00,73.0,31.9,30.06,West,271,8.0,15.0,22,0.00,CLR,,0.00,WeatherDisplay:10.37,2013-05-16 06:20:00,
2013-05-15 23:30:00,73.0,31.9,30.06,West,271,8.0,12.0,22,0.00,CLR,,0.00,WeatherDisplay:10.37,2013-05-16 06:30:00,
2013-05-15 23:40:00,73.0,31.9,30.06,West,274,7.0,10.0,22,0.00,CLR,,0.00,WeatherDisplay:10.37,2013-05-16 06:40:00,
2013-05-15 23:50:00,72.0,31.0,30.06,West,278,7.0,10.0,22,0.00,CLR,,0.00,WeatherDisplay:10.37,2013-05-16 06:50:00,